sensor_id;sensor_type;location;lat;lon;timestamp;temperature;humidity
21115;DHT22;10715;48.546;9.896;2023-07-24T00:01:16;16.50;99.90
21115;DHT22;10715;48.546;9.896;2023-07-24T00:03:44;16.50;99.90
21115;DHT22;10715;48.546;9.896;2023-07-24T00:06:09;16.50;99.90
21115;DHT22;10715;48.546;9.896;2023-07-24T00:08:35;16.50;99.90
21115;DHT22;10715;48.546;9.896;2023-07-24T00:11:01;16.50;99.90
21115;DHT22;10715;48.546;9.896;2023-07-24T00:13:29;16.50;99.90
21115;DHT22;10715;48.546;9.896;2023-07-24T00:15:56;16.50;99.90
21115;DHT22;10715;48.546;9.896;2023-07-24T00:18:22;16.50;99.90
21115;DHT22;10715;48.546;9.896;2023-07-24T00:20:48;16.50;99.90
21115;DHT22;10715;48.546;9.896;2023-07-24T00:23:13;16.50;99.90
21115;DHT22;10715;48.546;9.896;2023-07-24T00:25:39;16.50;99.90
21115;DHT22;10715;48.546;9.896;2023-07-24T00:28:05;16.50;99.90
21115;DHT22;10715;48.546;9.896;2023-07-24T00:30:30;16.50;99.90
21115;DHT22;10715;48.546;9.896;2023-07-24T00:32:56;16.50;99.90
21115;DHT22;10715;48.546;9.896;2023-07-24T00:35:22;16.40;99.90
21115;DHT22;10715;48.546;9.896;2023-07-24T00:37:47;16.40;99.90
21115;DHT22;10715;48.546;9.896;2023-07-24T00:40:13;16.40;99.90
21115;DHT22;10715;48.546;9.896;2023-07-24T00:42:39;16.40;99.90
21115;DHT22;10715;48.546;9.896;2023-07-24T00:45:05;16.40;99.90
21115;DHT22;10715;48.546;9.896;2023-07-24T00:47:30;16.40;99.90
21115;DHT22;10715;48.546;9.896;2023-07-24T00:49:56;16.30;99.90
21115;DHT22;10715;48.546;9.896;2023-07-24T00:52:22;16.30;99.90
21115;DHT22;10715;48.546;9.896;2023-07-24T00:54:49;16.30;99.90
21115;DHT22;10715;48.546;9.896;2023-07-24T00:57:15;16.30;99.90
21115;DHT22;10715;48.546;9.896;2023-07-24T00:59:41;16.30;99.90
21115;DHT22;10715;48.546;9.896;2023-07-24T01:02:08;16.30;99.90
21115;DHT22;10715;48.546;9.896;2023-07-24T01:04:34;16.20;99.90
21115;DHT22;10715;48.546;9.896;2023-07-24T01:07:00;16.20;99.90
21115;DHT22;10715;48.546;9.896;2023-07-24T01:09:25;16.20;99.90
21115;DHT22;10715;48.546;9.896;2023-07-24T01:12:44;16.20;99.90
21115;DHT22;10715;48.546;9.896;2023-07-24T01:17:59;16.10;99.90
21115;DHT22;10715;48.546;9.896;2023-07-24T01:20:26;16.10;99.90
21115;DHT22;10715;48.546;9.896;2023-07-24T01:26:00;16.00;99.90
21115;DHT22;10715;48.546;9.896;2023-07-24T01:28:28;15.90;99.90
21115;DHT22;10715;48.546;9.896;2023-07-24T01:30:55;15.90;99.90
21115;DHT22;10715;48.546;9.896;2023-07-24T01:33:21;15.90;99.90
21115;DHT22;10715;48.546;9.896;2023-07-24T01:35:57;15.80;99.90
21115;DHT22;10715;48.546;9.896;2023-07-24T01:38:26;15.70;99.90
21115;DHT22;10715;48.546;9.896;2023-07-24T01:40:54;15.60;99.90
21115;DHT22;10715;48.546;9.896;2023-07-24T01:43:21;15.50;99.90
21115;DHT22;10715;48.546;9.896;2023-07-24T01:45:46;15.50;99.90
21115;DHT22;10715;48.546;9.896;2023-07-24T01:48:12;15.40;99.90
21115;DHT22;10715;48.546;9.896;2023-07-24T01:50:38;15.40;99.90
21115;DHT22;10715;48.546;9.896;2023-07-24T01:53:03;15.40;99.90
21115;DHT22;10715;48.546;9.896;2023-07-24T01:55:29;15.40;99.90
21115;DHT22;10715;48.546;9.896;2023-07-24T01:57:55;15.30;99.90
21115;DHT22;10715;48.546;9.896;2023-07-24T02:00:20;15.30;99.90
21115;DHT22;10715;48.546;9.896;2023-07-24T02:02:46;15.30;99.90
21115;DHT22;10715;48.546;9.896;2023-07-24T02:05:12;15.30;99.90
21115;DHT22;10715;48.546;9.896;2023-07-24T02:07:38;15.30;99.90
21115;DHT22;10715;48.546;9.896;2023-07-24T02:10:03;15.40;99.90
21115;DHT22;10715;48.546;9.896;2023-07-24T02:12:29;15.40;99.90
21115;DHT22;10715;48.546;9.896;2023-07-24T02:14:55;15.40;99.90
21115;DHT22;10715;48.546;9.896;2023-07-24T02:17:21;15.40;99.90
21115;DHT22;10715;48.546;9.896;2023-07-24T02:19:48;15.40;99.90
21115;DHT22;10715;48.546;9.896;2023-07-24T02:22:15;15.40;99.90
21115;DHT22;10715;48.546;9.896;2023-07-24T02:24:41;15.40;99.90
21115;DHT22;10715;48.546;9.896;2023-07-24T02:27:07;15.30;99.90
21115;DHT22;10715;48.546;9.896;2023-07-24T02:29:33;15.40;99.90
21115;DHT22;10715;48.546;9.896;2023-07-24T02:32:00;15.30;99.90
21115;DHT22;10715;48.546;9.896;2023-07-24T02:34:26;15.30;99.90
21115;DHT22;10715;48.546;9.896;2023-07-24T02:36:53;15.30;99.90
21115;DHT22;10715;48.546;9.896;2023-07-24T02:39:20;15.40;99.90
21115;DHT22;10715;48.546;9.896;2023-07-24T02:41:46;15.40;99.90
21115;DHT22;10715;48.546;9.896;2023-07-24T02:44:12;15.40;99.90
21115;DHT22;10715;48.546;9.896;2023-07-24T02:46:38;15.40;99.90
21115;DHT22;10715;48.546;9.896;2023-07-24T02:49:04;15.30;99.90
21115;DHT22;10715;48.546;9.896;2023-07-24T02:51:30;15.40;99.90
21115;DHT22;10715;48.546;9.896;2023-07-24T02:53:56;15.30;99.90
21115;DHT22;10715;48.546;9.896;2023-07-24T02:56:21;15.30;99.90
21115;DHT22;10715;48.546;9.896;2023-07-24T02:58:47;15.30;99.90
21115;DHT22;10715;48.546;9.896;2023-07-24T03:01:13;15.30;99.90
21115;DHT22;10715;48.546;9.896;2023-07-24T03:03:40;15.20;99.90
21115;DHT22;10715;48.546;9.896;2023-07-24T03:06:06;15.20;99.90
21115;DHT22;10715;48.546;9.896;2023-07-24T03:08:32;15.20;99.90
21115;DHT22;10715;48.546;9.896;2023-07-24T03:10:59;15.10;99.90
21115;DHT22;10715;48.546;9.896;2023-07-24T03:13:24;15.10;99.90
21115;DHT22;10715;48.546;9.896;2023-07-24T03:15:57;15.00;99.90
21115;DHT22;10715;48.546;9.896;2023-07-24T03:18:24;15.00;99.90
21115;DHT22;10715;48.546;9.896;2023-07-24T03:20:50;15.00;99.90
21115;DHT22;10715;48.546;9.896;2023-07-24T03:23:15;14.90;99.90
21115;DHT22;10715;48.546;9.896;2023-07-24T03:25:41;14.90;99.90
21115;DHT22;10715;48.546;9.896;2023-07-24T03:28:07;14.90;99.90
21115;DHT22;10715;48.546;9.896;2023-07-24T03:30:33;14.80;99.90
21115;DHT22;10715;48.546;9.896;2023-07-24T03:32:58;14.80;99.90
21115;DHT22;10715;48.546;9.896;2023-07-24T03:35:24;14.80;99.90
21115;DHT22;10715;48.546;9.896;2023-07-24T03:37:50;14.80;99.90
21115;DHT22;10715;48.546;9.896;2023-07-24T03:40:16;14.70;99.90
21115;DHT22;10715;48.546;9.896;2023-07-24T03:42:41;14.70;99.90
21115;DHT22;10715;48.546;9.896;2023-07-24T03:45:08;14.70;99.90
21115;DHT22;10715;48.546;9.896;2023-07-24T03:47:34;14.70;99.90
21115;DHT22;10715;48.546;9.896;2023-07-24T03:50:00;14.70;99.90
21115;DHT22;10715;48.546;9.896;2023-07-24T03:52:25;14.70;99.90
21115;DHT22;10715;48.546;9.896;2023-07-24T03:54:52;14.60;99.90
21115;DHT22;10715;48.546;9.896;2023-07-24T03:57:17;14.50;99.90
21115;DHT22;10715;48.546;9.896;2023-07-24T03:59:43;14.50;99.90
21115;DHT22;10715;48.546;9.896;2023-07-24T04:02:09;14.50;99.90
21115;DHT22;10715;48.546;9.896;2023-07-24T04:04:36;14.40;99.90
21115;DHT22;10715;48.546;9.896;2023-07-24T04:07:02;14.40;99.90
21115;DHT22;10715;48.546;9.896;2023-07-24T04:09:27;14.40;99.90
21115;DHT22;10715;48.546;9.896;2023-07-24T04:11:53;14.40;99.90
21115;DHT22;10715;48.546;9.896;2023-07-24T04:14:19;14.40;99.90
21115;DHT22;10715;48.546;9.896;2023-07-24T04:16:44;14.30;99.90
21115;DHT22;10715;48.546;9.896;2023-07-24T04:19:10;14.30;99.90
21115;DHT22;10715;48.546;9.896;2023-07-24T04:21:36;14.40;99.90
21115;DHT22;10715;48.546;9.896;2023-07-24T04:24:02;14.40;99.90
21115;DHT22;10715;48.546;9.896;2023-07-24T04:26:28;14.30;99.90
21115;DHT22;10715;48.546;9.896;2023-07-24T04:28:53;14.30;99.90
21115;DHT22;10715;48.546;9.896;2023-07-24T04:31:19;14.30;99.90
21115;DHT22;10715;48.546;9.896;2023-07-24T04:33:45;14.30;99.90
21115;DHT22;10715;48.546;9.896;2023-07-24T04:36:10;14.20;99.90
21115;DHT22;10715;48.546;9.896;2023-07-24T04:38:36;14.30;99.90
21115;DHT22;10715;48.546;9.896;2023-07-24T04:41:01;14.30;99.90
21115;DHT22;10715;48.546;9.896;2023-07-24T04:43:28;14.30;99.90
21115;DHT22;10715;48.546;9.896;2023-07-24T04:45:54;14.30;99.90
21115;DHT22;10715;48.546;9.896;2023-07-24T04:48:20;14.40;99.90
21115;DHT22;10715;48.546;9.896;2023-07-24T04:50:46;14.40;99.90
21115;DHT22;10715;48.546;9.896;2023-07-24T04:53:11;14.40;99.90
21115;DHT22;10715;48.546;9.896;2023-07-24T04:55:37;14.50;99.90
21115;DHT22;10715;48.546;9.896;2023-07-24T04:58:03;14.50;99.90
21115;DHT22;10715;48.546;9.896;2023-07-24T05:00:28;14.60;99.90
21115;DHT22;10715;48.546;9.896;2023-07-24T05:02:54;14.60;99.90
21115;DHT22;10715;48.546;9.896;2023-07-24T05:05:20;14.60;99.90
21115;DHT22;10715;48.546;9.896;2023-07-24T05:07:45;14.70;99.90
21115;DHT22;10715;48.546;9.896;2023-07-24T05:10:11;14.70;99.90
21115;DHT22;10715;48.546;9.896;2023-07-24T05:12:41;14.80;99.90
21115;DHT22;10715;48.546;9.896;2023-07-24T05:15:08;14.80;99.90
21115;DHT22;10715;48.546;9.896;2023-07-24T05:17:33;14.80;99.90
21115;DHT22;10715;48.546;9.896;2023-07-24T05:19:59;14.90;99.90
21115;DHT22;10715;48.546;9.896;2023-07-24T05:22:25;14.90;99.90
21115;DHT22;10715;48.546;9.896;2023-07-24T05:24:50;14.90;99.90
21115;DHT22;10715;48.546;9.896;2023-07-24T05:27:16;14.90;99.90
21115;DHT22;10715;48.546;9.896;2023-07-24T05:29:42;15.00;99.90
21115;DHT22;10715;48.546;9.896;2023-07-24T05:32:07;15.00;99.90
21115;DHT22;10715;48.546;9.896;2023-07-24T05:34:33;15.00;99.90
21115;DHT22;10715;48.546;9.896;2023-07-24T05:36:59;15.10;99.90
21115;DHT22;10715;48.546;9.896;2023-07-24T05:39:24;15.10;99.90
21115;DHT22;10715;48.546;9.896;2023-07-24T05:41:50;15.20;99.90
21115;DHT22;10715;48.546;9.896;2023-07-24T05:44:16;15.20;99.90
21115;DHT22;10715;48.546;9.896;2023-07-24T05:46:41;15.30;99.90
21115;DHT22;10715;48.546;9.896;2023-07-24T05:49:07;15.40;99.90
21115;DHT22;10715;48.546;9.896;2023-07-24T05:51:33;15.40;99.90
21115;DHT22;10715;48.546;9.896;2023-07-24T05:53:58;15.50;99.90
21115;DHT22;10715;48.546;9.896;2023-07-24T05:56:24;15.50;99.90
21115;DHT22;10715;48.546;9.896;2023-07-24T05:58:50;15.60;99.90
21115;DHT22;10715;48.546;9.896;2023-07-24T06:01:15;15.60;99.90
21115;DHT22;10715;48.546;9.896;2023-07-24T06:03:42;15.70;99.90
21115;DHT22;10715;48.546;9.896;2023-07-24T06:06:08;15.70;99.90
21115;DHT22;10715;48.546;9.896;2023-07-24T06:08:34;15.80;99.90
21115;DHT22;10715;48.546;9.896;2023-07-24T06:10:59;15.80;99.90
21115;DHT22;10715;48.546;9.896;2023-07-24T06:13:25;15.90;99.90
21115;DHT22;10715;48.546;9.896;2023-07-24T06:15:52;16.00;99.90
21115;DHT22;10715;48.546;9.896;2023-07-24T06:18:18;16.10;99.90
21115;DHT22;10715;48.546;9.896;2023-07-24T06:20:43;16.20;99.90
21115;DHT22;10715;48.546;9.896;2023-07-24T06:23:09;16.30;99.90
21115;DHT22;10715;48.546;9.896;2023-07-24T06:25:35;16.40;99.90
21115;DHT22;10715;48.546;9.896;2023-07-24T06:28:00;16.60;99.90
21115;DHT22;10715;48.546;9.896;2023-07-24T06:30:26;16.70;99.90
21115;DHT22;10715;48.546;9.896;2023-07-24T06:32:52;16.90;99.90
21115;DHT22;10715;48.546;9.896;2023-07-24T06:35:18;17.10;99.90
21115;DHT22;10715;48.546;9.896;2023-07-24T06:37:43;17.20;99.90
21115;DHT22;10715;48.546;9.896;2023-07-24T06:40:10;17.40;99.90
21115;DHT22;10715;48.546;9.896;2023-07-24T06:42:36;17.50;99.90
21115;DHT22;10715;48.546;9.896;2023-07-24T06:45:02;17.60;99.90
21115;DHT22;10715;48.546;9.896;2023-07-24T06:47:28;17.70;99.90
21115;DHT22;10715;48.546;9.896;2023-07-24T06:49:53;17.80;99.90
21115;DHT22;10715;48.546;9.896;2023-07-24T06:52:19;17.80;99.90
21115;DHT22;10715;48.546;9.896;2023-07-24T06:54:44;17.90;99.90
21115;DHT22;10715;48.546;9.896;2023-07-24T06:57:10;18.00;99.90
21115;DHT22;10715;48.546;9.896;2023-07-24T06:59:36;18.00;99.90
21115;DHT22;10715;48.546;9.896;2023-07-24T07:02:02;18.10;99.90
21115;DHT22;10715;48.546;9.896;2023-07-24T07:04:27;18.10;99.90
21115;DHT22;10715;48.546;9.896;2023-07-24T07:06:53;18.10;99.90
21115;DHT22;10715;48.546;9.896;2023-07-24T07:09:19;18.10;99.90
21115;DHT22;10715;48.546;9.896;2023-07-24T07:11:44;18.20;99.90
21115;DHT22;10715;48.546;9.896;2023-07-24T07:14:10;18.20;99.90
21115;DHT22;10715;48.546;9.896;2023-07-24T07:16:36;18.20;99.90
21115;DHT22;10715;48.546;9.896;2023-07-24T07:19:02;18.20;99.90
21115;DHT22;10715;48.546;9.896;2023-07-24T07:21:28;18.30;99.90
21115;DHT22;10715;48.546;9.896;2023-07-24T07:23:54;18.30;99.90
21115;DHT22;10715;48.546;9.896;2023-07-24T07:26:20;18.30;99.90
21115;DHT22;10715;48.546;9.896;2023-07-24T07:28:46;18.40;99.90
21115;DHT22;10715;48.546;9.896;2023-07-24T07:31:11;18.40;99.90
21115;DHT22;10715;48.546;9.896;2023-07-24T07:33:37;18.50;99.90
21115;DHT22;10715;48.546;9.896;2023-07-24T07:36:03;18.50;99.90
21115;DHT22;10715;48.546;9.896;2023-07-24T07:38:30;18.60;99.90
21115;DHT22;10715;48.546;9.896;2023-07-24T07:40:55;18.60;99.90
21115;DHT22;10715;48.546;9.896;2023-07-24T07:43:21;18.60;99.90
21115;DHT22;10715;48.546;9.896;2023-07-24T07:45:47;18.70;99.90
21115;DHT22;10715;48.546;9.896;2023-07-24T07:48:13;18.80;99.90
21115;DHT22;10715;48.546;9.896;2023-07-24T07:50:39;18.80;99.90
21115;DHT22;10715;48.546;9.896;2023-07-24T07:53:05;18.80;99.90
21115;DHT22;10715;48.546;9.896;2023-07-24T07:55:30;18.90;99.90
21115;DHT22;10715;48.546;9.896;2023-07-24T07:57:56;19.00;99.90
21115;DHT22;10715;48.546;9.896;2023-07-24T08:00:22;19.10;99.90
21115;DHT22;10715;48.546;9.896;2023-07-24T08:02:48;19.20;99.90
21115;DHT22;10715;48.546;9.896;2023-07-24T08:05:13;19.30;99.90
21115;DHT22;10715;48.546;9.896;2023-07-24T08:07:39;19.40;99.90
21115;DHT22;10715;48.546;9.896;2023-07-24T08:10:05;19.50;99.90
21115;DHT22;10715;48.546;9.896;2023-07-24T08:12:32;19.60;99.90
21115;DHT22;10715;48.546;9.896;2023-07-24T08:14:57;19.70;99.90
21115;DHT22;10715;48.546;9.896;2023-07-24T08:17:23;19.80;99.90
21115;DHT22;10715;48.546;9.896;2023-07-24T08:19:49;19.90;99.90
21115;DHT22;10715;48.546;9.896;2023-07-24T08:22:14;20.00;99.90
21115;DHT22;10715;48.546;9.896;2023-07-24T08:24:40;20.10;99.90
21115;DHT22;10715;48.546;9.896;2023-07-24T08:27:06;20.20;99.90
21115;DHT22;10715;48.546;9.896;2023-07-24T08:29:32;20.30;99.90
21115;DHT22;10715;48.546;9.896;2023-07-24T08:31:58;20.40;99.90
21115;DHT22;10715;48.546;9.896;2023-07-24T08:34:24;20.60;99.90
21115;DHT22;10715;48.546;9.896;2023-07-24T08:36:50;20.80;99.90
21115;DHT22;10715;48.546;9.896;2023-07-24T08:39:16;21.00;99.90
21115;DHT22;10715;48.546;9.896;2023-07-24T08:41:41;21.10;99.90
21115;DHT22;10715;48.546;9.896;2023-07-24T08:44:08;21.20;99.90
21115;DHT22;10715;48.546;9.896;2023-07-24T08:46:38;21.30;99.90
21115;DHT22;10715;48.546;9.896;2023-07-24T08:49:12;21.30;99.90
21115;DHT22;10715;48.546;9.896;2023-07-24T08:51:40;21.40;99.90
21115;DHT22;10715;48.546;9.896;2023-07-24T08:54:07;21.50;99.90
21115;DHT22;10715;48.546;9.896;2023-07-24T08:56:33;21.60;99.90
21115;DHT22;10715;48.546;9.896;2023-07-24T08:58:59;21.70;99.90
21115;DHT22;10715;48.546;9.896;2023-07-24T09:01:25;21.70;99.90
21115;DHT22;10715;48.546;9.896;2023-07-24T09:03:51;21.80;99.90
21115;DHT22;10715;48.546;9.896;2023-07-24T09:06:16;21.80;99.90
21115;DHT22;10715;48.546;9.896;2023-07-24T09:08:43;21.90;99.90
21115;DHT22;10715;48.546;9.896;2023-07-24T09:11:10;22.00;99.90
21115;DHT22;10715;48.546;9.896;2023-07-24T09:13:41;22.10;99.90
21115;DHT22;10715;48.546;9.896;2023-07-24T09:16:07;22.10;99.90
21115;DHT22;10715;48.546;9.896;2023-07-24T09:18:40;22.10;99.90
21115;DHT22;10715;48.546;9.896;2023-07-24T09:21:06;22.10;99.90
21115;DHT22;10715;48.546;9.896;2023-07-24T09:23:32;22.10;99.90
21115;DHT22;10715;48.546;9.896;2023-07-24T09:25:58;22.00;99.90
21115;DHT22;10715;48.546;9.896;2023-07-24T09:28:24;22.00;99.90
21115;DHT22;10715;48.546;9.896;2023-07-24T09:30:57;21.90;99.90
21115;DHT22;10715;48.546;9.896;2023-07-24T09:33:40;21.90;99.90
21115;DHT22;10715;48.546;9.896;2023-07-24T09:36:07;21.90;99.90
21115;DHT22;10715;48.546;9.896;2023-07-24T09:38:37;21.80;99.90
21115;DHT22;10715;48.546;9.896;2023-07-24T09:41:03;21.80;99.90
21115;DHT22;10715;48.546;9.896;2023-07-24T09:43:29;21.80;99.90
21115;DHT22;10715;48.546;9.896;2023-07-24T09:45:56;21.80;99.90
21115;DHT22;10715;48.546;9.896;2023-07-24T09:48:24;21.80;99.90
21115;DHT22;10715;48.546;9.896;2023-07-24T09:50:54;21.70;99.90
21115;DHT22;10715;48.546;9.896;2023-07-24T09:53:46;21.70;99.90
21115;DHT22;10715;48.546;9.896;2023-07-24T09:56:14;21.70;99.90
21115;DHT22;10715;48.546;9.896;2023-07-24T09:58:40;21.70;99.90
21115;DHT22;10715;48.546;9.896;2023-07-24T10:01:08;21.60;99.90
21115;DHT22;10715;48.546;9.896;2023-07-24T10:03:54;21.50;99.90
21115;DHT22;10715;48.546;9.896;2023-07-24T10:06:20;21.40;99.90
21115;DHT22;10715;48.546;9.896;2023-07-24T10:08:47;21.30;99.90
21115;DHT22;10715;48.546;9.896;2023-07-24T10:11:14;21.10;99.90
21115;DHT22;10715;48.546;9.896;2023-07-24T10:13:40;21.00;99.90
21115;DHT22;10715;48.546;9.896;2023-07-24T10:16:07;20.90;99.90
21115;DHT22;10715;48.546;9.896;2023-07-24T10:18:34;20.70;99.90
21115;DHT22;10715;48.546;9.896;2023-07-24T10:21:06;20.60;99.90
21115;DHT22;10715;48.546;9.896;2023-07-24T10:23:39;20.50;99.90
21115;DHT22;10715;48.546;9.896;2023-07-24T10:26:06;20.30;99.90
21115;DHT22;10715;48.546;9.896;2023-07-24T10:28:34;20.20;99.90
21115;DHT22;10715;48.546;9.896;2023-07-24T10:31:08;20.10;99.90
21115;DHT22;10715;48.546;9.896;2023-07-24T10:33:36;20.00;99.90
21115;DHT22;10715;48.546;9.896;2023-07-24T10:36:09;20.00;99.90
21115;DHT22;10715;48.546;9.896;2023-07-24T10:38:43;19.80;99.90
21115;DHT22;10715;48.546;9.896;2023-07-24T10:41:10;19.80;99.90
21115;DHT22;10715;48.546;9.896;2023-07-24T10:43:43;19.70;99.90
21115;DHT22;10715;48.546;9.896;2023-07-24T10:46:10;19.50;99.90
21115;DHT22;10715;48.546;9.896;2023-07-24T10:48:36;19.50;99.90
21115;DHT22;10715;48.546;9.896;2023-07-24T10:51:07;19.30;99.90
21115;DHT22;10715;48.546;9.896;2023-07-24T10:53:37;19.30;99.90
21115;DHT22;10715;48.546;9.896;2023-07-24T10:56:04;19.20;99.90
21115;DHT22;10715;48.546;9.896;2023-07-24T10:58:31;19.10;99.90
21115;DHT22;10715;48.546;9.896;2023-07-24T11:00:56;19.10;99.90
21115;DHT22;10715;48.546;9.896;2023-07-24T11:03:24;19.10;99.90
21115;DHT22;10715;48.546;9.896;2023-07-24T11:05:50;19.10;99.90
21115;DHT22;10715;48.546;9.896;2023-07-24T11:08:18;19.00;99.90
21115;DHT22;10715;48.546;9.896;2023-07-24T11:10:52;18.90;99.90
21115;DHT22;10715;48.546;9.896;2023-07-24T11:13:23;18.90;99.90
21115;DHT22;10715;48.546;9.896;2023-07-24T11:15:50;18.80;99.90
21115;DHT22;10715;48.546;9.896;2023-07-24T11:18:16;18.70;99.90
21115;DHT22;10715;48.546;9.896;2023-07-24T11:20:47;18.70;99.90
21115;DHT22;10715;48.546;9.896;2023-07-24T11:23:13;18.60;99.90
21115;DHT22;10715;48.546;9.896;2023-07-24T11:25:40;18.60;99.90
21115;DHT22;10715;48.546;9.896;2023-07-24T11:28:07;18.50;99.90
21115;DHT22;10715;48.546;9.896;2023-07-24T11:30:34;18.50;99.90
21115;DHT22;10715;48.546;9.896;2023-07-24T11:33:03;18.30;99.90
21115;DHT22;10715;48.546;9.896;2023-07-24T11:35:29;18.40;99.90
21115;DHT22;10715;48.546;9.896;2023-07-24T11:37:55;18.30;99.90
21115;DHT22;10715;48.546;9.896;2023-07-24T11:40:21;18.30;99.90
21115;DHT22;10715;48.546;9.896;2023-07-24T11:42:48;18.30;99.90
21115;DHT22;10715;48.546;9.896;2023-07-24T11:45:14;18.30;99.90
21115;DHT22;10715;48.546;9.896;2023-07-24T11:47:45;18.20;99.90
21115;DHT22;10715;48.546;9.896;2023-07-24T11:50:12;18.30;99.90
21115;DHT22;10715;48.546;9.896;2023-07-24T11:52:39;18.30;99.90
21115;DHT22;10715;48.546;9.896;2023-07-24T11:55:06;18.30;99.90
21115;DHT22;10715;48.546;9.896;2023-07-24T11:57:32;18.20;99.90
21115;DHT22;10715;48.546;9.896;2023-07-24T11:59:58;18.20;99.90
21115;DHT22;10715;48.546;9.896;2023-07-24T12:02:26;18.30;99.90
21115;DHT22;10715;48.546;9.896;2023-07-24T12:04:57;18.30;99.90
21115;DHT22;10715;48.546;9.896;2023-07-24T12:07:33;18.40;99.90
21115;DHT22;10715;48.546;9.896;2023-07-24T12:10:03;18.40;99.90
21115;DHT22;10715;48.546;9.896;2023-07-24T12:12:43;18.40;99.90
21115;DHT22;10715;48.546;9.896;2023-07-24T12:15:10;18.50;99.90
21115;DHT22;10715;48.546;9.896;2023-07-24T12:17:36;18.60;99.90
21115;DHT22;10715;48.546;9.896;2023-07-24T12:20:02;18.60;99.90
21115;DHT22;10715;48.546;9.896;2023-07-24T12:22:30;18.70;99.90
21115;DHT22;10715;48.546;9.896;2023-07-24T12:24:56;18.70;99.90
21115;DHT22;10715;48.546;9.896;2023-07-24T12:27:21;18.80;99.90
21115;DHT22;10715;48.546;9.896;2023-07-24T12:29:47;18.90;99.90
21115;DHT22;10715;48.546;9.896;2023-07-24T12:32:13;19.00;99.90
21115;DHT22;10715;48.546;9.896;2023-07-24T12:34:39;19.00;99.90
21115;DHT22;10715;48.546;9.896;2023-07-24T12:37:04;19.10;99.90
21115;DHT22;10715;48.546;9.896;2023-07-24T12:39:31;19.20;99.90
21115;DHT22;10715;48.546;9.896;2023-07-24T12:41:56;19.20;99.90
21115;DHT22;10715;48.546;9.896;2023-07-24T12:44:22;19.30;99.90
21115;DHT22;10715;48.546;9.896;2023-07-24T12:46:48;19.30;99.90
21115;DHT22;10715;48.546;9.896;2023-07-24T12:49:14;19.30;99.90
21115;DHT22;10715;48.546;9.896;2023-07-24T12:51:40;19.30;99.90
21115;DHT22;10715;48.546;9.896;2023-07-24T12:54:05;19.30;99.90
21115;DHT22;10715;48.546;9.896;2023-07-24T12:56:31;19.30;99.90
21115;DHT22;10715;48.546;9.896;2023-07-24T12:58:57;19.40;99.90
21115;DHT22;10715;48.546;9.896;2023-07-24T13:01:22;19.40;99.90
21115;DHT22;10715;48.546;9.896;2023-07-24T13:03:49;19.30;99.90
21115;DHT22;10715;48.546;9.896;2023-07-24T13:06:15;19.30;99.90
21115;DHT22;10715;48.546;9.896;2023-07-24T13:08:40;19.30;99.90
21115;DHT22;10715;48.546;9.896;2023-07-24T13:11:06;19.30;99.90
21115;DHT22;10715;48.546;9.896;2023-07-24T13:13:32;19.30;99.90
21115;DHT22;10715;48.546;9.896;2023-07-24T13:15:57;19.30;99.90
21115;DHT22;10715;48.546;9.896;2023-07-24T13:18:23;19.30;99.90
21115;DHT22;10715;48.546;9.896;2023-07-24T13:20:49;19.30;99.90
21115;DHT22;10715;48.546;9.896;2023-07-24T13:23:14;19.20;99.90
21115;DHT22;10715;48.546;9.896;2023-07-24T13:25:40;19.20;99.90
21115;DHT22;10715;48.546;9.896;2023-07-24T13:28:06;19.20;99.90
21115;DHT22;10715;48.546;9.896;2023-07-24T13:30:31;19.20;99.90
21115;DHT22;10715;48.546;9.896;2023-07-24T13:32:57;19.20;99.90
21115;DHT22;10715;48.546;9.896;2023-07-24T13:35:23;19.20;99.90
21115;DHT22;10715;48.546;9.896;2023-07-24T13:37:48;19.10;99.90
21115;DHT22;10715;48.546;9.896;2023-07-24T13:40:14;19.20;99.90
21115;DHT22;10715;48.546;9.896;2023-07-24T13:42:40;19.20;99.90
21115;DHT22;10715;48.546;9.896;2023-07-24T13:45:06;19.10;99.90
21115;DHT22;10715;48.546;9.896;2023-07-24T13:47:32;19.20;99.90
21115;DHT22;10715;48.546;9.896;2023-07-24T13:49:58;19.20;99.90
21115;DHT22;10715;48.546;9.896;2023-07-24T13:52:25;19.20;99.90
21115;DHT22;10715;48.546;9.896;2023-07-24T13:54:51;19.20;99.90
21115;DHT22;10715;48.546;9.896;2023-07-24T13:57:16;19.30;99.90
21115;DHT22;10715;48.546;9.896;2023-07-24T13:59:43;19.30;99.90
21115;DHT22;10715;48.546;9.896;2023-07-24T14:02:08;19.30;99.90
21115;DHT22;10715;48.546;9.896;2023-07-24T14:04:34;19.30;99.90
21115;DHT22;10715;48.546;9.896;2023-07-24T14:07:00;19.30;99.90
21115;DHT22;10715;48.546;9.896;2023-07-24T14:09:25;19.30;99.90
21115;DHT22;10715;48.546;9.896;2023-07-24T14:11:51;19.30;99.90
21115;DHT22;10715;48.546;9.896;2023-07-24T14:14:18;19.30;99.90
21115;DHT22;10715;48.546;9.896;2023-07-24T14:16:44;19.20;99.90
21115;DHT22;10715;48.546;9.896;2023-07-24T14:19:09;19.10;99.90
21115;DHT22;10715;48.546;9.896;2023-07-24T14:21:35;19.00;99.90
21115;DHT22;10715;48.546;9.896;2023-07-24T14:24:01;19.00;99.90
21115;DHT22;10715;48.546;9.896;2023-07-24T14:26:26;19.00;99.90
21115;DHT22;10715;48.546;9.896;2023-07-24T14:28:52;18.90;99.90
21115;DHT22;10715;48.546;9.896;2023-07-24T14:31:18;18.90;99.90
21115;DHT22;10715;48.546;9.896;2023-07-24T14:33:44;18.90;99.90
21115;DHT22;10715;48.546;9.896;2023-07-24T14:36:09;18.90;99.90
21115;DHT22;10715;48.546;9.896;2023-07-24T14:38:35;18.80;99.90
21115;DHT22;10715;48.546;9.896;2023-07-24T14:41:01;18.80;99.90
21115;DHT22;10715;48.546;9.896;2023-07-24T14:43:26;18.80;99.90
21115;DHT22;10715;48.546;9.896;2023-07-24T14:45:52;18.80;99.90
21115;DHT22;10715;48.546;9.896;2023-07-24T14:48:18;18.80;99.90
21115;DHT22;10715;48.546;9.896;2023-07-24T14:50:43;18.70;99.90
21115;DHT22;10715;48.546;9.896;2023-07-24T14:53:09;18.60;99.90
21115;DHT22;10715;48.546;9.896;2023-07-24T14:55:35;18.60;99.90
21115;DHT22;10715;48.546;9.896;2023-07-24T14:58:00;18.60;99.90
21115;DHT22;10715;48.546;9.896;2023-07-24T15:00:26;18.50;99.90
21115;DHT22;10715;48.546;9.896;2023-07-24T15:02:53;18.50;99.90
21115;DHT22;10715;48.546;9.896;2023-07-24T15:05:19;18.50;99.90
21115;DHT22;10715;48.546;9.896;2023-07-24T15:07:44;18.40;99.90
21115;DHT22;10715;48.546;9.896;2023-07-24T15:10:10;18.40;99.90
21115;DHT22;10715;48.546;9.896;2023-07-24T15:12:37;18.40;99.90
21115;DHT22;10715;48.546;9.896;2023-07-24T15:15:02;18.30;99.90
21115;DHT22;10715;48.546;9.896;2023-07-24T15:17:28;18.30;99.90
21115;DHT22;10715;48.546;9.896;2023-07-24T15:19:54;18.30;99.90
21115;DHT22;10715;48.546;9.896;2023-07-24T15:22:20;18.30;99.90
21115;DHT22;10715;48.546;9.896;2023-07-24T15:24:45;18.30;99.90
21115;DHT22;10715;48.546;9.896;2023-07-24T15:27:11;18.30;99.90
21115;DHT22;10715;48.546;9.896;2023-07-24T15:29:37;18.30;99.90
21115;DHT22;10715;48.546;9.896;2023-07-24T15:32:04;18.30;99.90